Search flights

Newark Liberty Intl Airport, Newark (KEWR)

Airport Weather & NOTAM's

METAR for:KEWR (Newark Intl, NJ, US)
Text:KEWR 140451Z 23007KT 10SM SCT250 28/24 A3005 RMK AO2 SLP176 T02780239 403170228
Conditions at:0451 UTC 14 Jul 2024
Temperature: 27.8°C ( 82°F)
Dewpoint: 23.9°C ( 75°F) [RH = 79%]
Pressure (altimeter):30.05 inches Hg (1017.7 mb) [Sea level pressure: 1017.6 mb]
Winds:from the SW (230 degrees) at 8 MPH (7 knots; 3.6 m/s)
Visibility:10 or more sm (16+ km)
Ceiling:at least 12,000 feet AGL
Clouds:scattered clouds at 25000 feet AGL
TAF for:KEWR (Newark Intl, NJ, US) issued at 0231 UTC 14 Jul 2024
Text:KEWR 140231Z 1403/1506 VRB03KT P6SM FEW070 SCT250
Forecast period:0300 to 1400 UTC 14 July 2024
Forecast type:FROM: standard forecast or significant change
Winds:variable direction winds at 3 MPH (3 knots; 1.5 m/s)
Visibility:6 or more sm (10+ km)
Ceiling:at least 12,000 feet AGL
Clouds:few clouds at 7000 feet AGL, scattered clouds at 25000 feet AGL
Text:FM141400 24005KT P6SM FEW060 SCT250
Forecast period:1400 to 2100 UTC 14 July 2024
Forecast type:FROM: standard forecast or significant change
Winds:from the WSW (240 degrees) at 6 MPH (5 knots; 2.6 m/s)
Visibility:6 or more sm (10+ km)
Ceiling:at least 12,000 feet AGL
Clouds:few clouds at 6000 feet AGL, scattered clouds at 25000 feet AGL
Text:FM142100 20006KT P6SM SCT060
Forecast period:2100 UTC 14 July 2024 to 0600 UTC 15 July 2024
Forecast type:FROM: standard forecast or significant change
Winds:from the SSW (200 degrees) at 7 MPH (6 knots; 3.1 m/s)
Visibility:6 or more sm (10+ km)
Ceiling:at least 12,000 feet AGL
Clouds:scattered clouds at 6000 feet AGL

Live Departures & Arrivals

There are currently no arrivals or departures for this airport.

Departures History (last 12 months)

Flight No. Dest. Aircraft Date
FX 503 KMIA FEDEX-MD11... 2024-07-12 00:00:00
FX 504 LFPG FEDEX-B77F 2024-07-09 00:00:00
FX 500 KORD FEDEX-B77F 2024-07-09 00:00:00
FX508 KATL FEDEX-B77F 2024-07-06 00:00:00
FX 503 KMIA FEDEX-DC10... 2024-07-03 00:00:00
FX 505 PANC FEDEX-B77F 2024-06-30 00:00:00
FX504 LFPG FEDEX-B77F 2024-06-22 00:00:00
FX 504 LFPG FEDEX-B77F 2024-06-19 00:00:00
FX762 KPVD FEDEX-MD11... 2024-06-12 00:00:00
FX 498 KMEM FEDEX-DC10... 2024-06-12 00:00:00
FX 503 KMIA FEDEX-MD11... 2024-06-07 00:00:00
FX 503 KMIA FEDEX-MD11... 2024-06-01 00:00:00
FX 1197 KDEN IF-LIVERY-... 2024-05-30 00:00:00
FX508 KATL FEDEX-B77F 2024-05-28 00:00:00
FX503 KMIA FEDEX-B77F 2024-05-28 00:00:00
FX 508 KATL FEDEX-B77F 2024-05-28 00:00:00
FX 508 KATL FEDEX-B77F 2024-05-28 00:00:00
FX 500 KORD FEDEX-B77F 2024-05-27 00:00:00
FX 505 PANC FEDEX-B77F 2024-05-22 00:00:00
FX 503 KMIA FEDEX-MD11... 2024-05-20 00:00:00
FX 500 KORD FEDEX-B77F 2024-05-19 00:00:00
FX 503 KMIA FEDEX-B77F 2024-05-18 00:00:00
FX 503 KMIA FEDEX-MD11... 2024-05-13 00:00:00
FX 502 KGSO FEDEX-B77F 2024-05-13 00:00:00
FNF 05 KCHS FEDEX-B77F 2024-05-11 00:00:00
FX ATC KEWR IFATC 2024-05-11 00:00:00
FNF 05 KCHS FEDEX-MD11... 2024-05-11 00:00:00
FNF 05 KCHS FEDEX-B77F 2024-05-11 00:00:00
FNF 05 KCHS FEDEX-B77F 2024-05-11 00:00:00
FNF 05 KCHS FEDEX-MD11... 2024-05-11 00:00:00
FNF 05 KCHS FEDEX-B77F 2024-05-11 00:00:00
FX 530 KONT FEDEX-MD11... 2024-04-29 00:00:00
FX 520 KBNA FEDEX-B77F 2024-04-18 00:00:00
FX520 KBNA FEDEX-B77F 2024-04-18 00:00:00
FX 520 KBNA FEDEX-B77F 2024-04-18 00:00:00
FX 504 LFPG FEDEX-B77F 2024-04-18 00:00:00
FX514 KDTW FEDEX-MD11... 2024-04-10 00:00:00
FX 508 KATL FEDEX-B77F 2024-04-10 00:00:00
FX 498 KMEM FEDEX-MD11... 2024-04-03 00:00:00
FX CZR LFPG FEDEX-MD11... 2024-03-30 00:00:00
CONNECT77 LFPG FEDEX-MD11... 2024-03-29 00:00:00
CONNECT 77 LFPG FEDEX-MD11... 2024-03-28 00:00:00
CONNECT 77 LFPG FEDEX-MD11... 2024-03-28 00:00:00
FX CTR ORBI FEDEX-B77F 2024-03-26 00:00:00
CONNECT 77 LFPG FEDEX-MD11... 2024-03-25 00:00:00
FX 503 KMIA FEDEX-B77F 2024-03-23 00:00:00
FX 503 KMIA FEDEX-B77F 2024-03-23 00:00:00
FX 503 KMIA FEDEX-MD11... 2024-03-23 00:00:00
FX 503 KMIA FEDEX-B77F 2024-03-23 00:00:00
FX 503 KMIA FEDEX-B77F 2024-03-23 00:00:00
FX 1072 KAFW IF-LIVERY-... 2024-03-17 00:00:00
FX 505 PANC FEDEX-B77F 2024-03-14 00:00:00
FX 1197 KDEN IF-LIVERY-... 2024-03-15 00:00:00
FX 508 KATL IF-LIVERY-... 2024-03-11 00:00:00
FX EVENT CYYZ FEDEX-B77F 2024-03-10 00:00:00
FX EVENT CYYZ FEDEX-B77F 2024-03-09 00:00:00
FX EVENT CYYZ FEDEX-B77F 2024-03-09 00:00:00
FX EVENT CYYZ FEDEX-B77F 2024-03-09 00:00:00
FX 503 KMIA FEDEX-B77F 2024-02-27 00:00:00
FX 526 KIAD FEDEX-B77F 2024-02-26 00:00:00
FX 503 KORD FEDEX-B77F 2024-02-21 00:00:00
FX 533 KONT FEDEX-MD11... 2024-02-20 00:00:00
FX 506 KMIA FEDEX-B77F 2024-02-17 00:00:00
FX ATC KEWR IFATC 2024-02-11 00:00:00
FX506 KMIA FEDEX-B77F 2024-02-10 00:00:00
FX 517 KDTW FEDEX-B77F 2024-01-31 00:00:00
FX CTR TJSJ FEDEX-B77F 2024-01-26 00:00:00
FX 506 KMIA FEDEX-MD11... 2024-01-25 00:00:00
FX 506 KMIA FEDEX-B77F 2024-01-25 00:00:00
FX 503 KORD FEDEX-B77F 2024-01-25 00:00:00
FX 506 KMIA FEDEX-B77F 2024-01-22 00:00:00
FX511 KATL FEDEX-MD11... 2024-01-15 00:00:00
FX 511 KATL FEDEX-B77F 2024-01-16 00:00:00
FX 501 KMEM FEDEX-B77F 2024-01-13 00:00:00
FX 523 KBNA B77F 2024-01-09 00:00:00
FX 507 LFPG DC10F 2024-01-09 00:00:00
FX798 KPVD DC10F 2024-01-08 00:00:00
FX 1236 KDEN B752 2024-01-05 00:00:00
FX 507 LFPG MD11F 2024-01-03 00:00:00
FX 1039 KPDX B763 2024-01-02 00:00:00
FX 523 KBNA B77F 2024-01-02 00:00:00
FX 503 KORD B77F 2024-01-02 00:00:00
FX 502 KIND B77F 2024-01-02 00:00:00
FX 506 KMIA B77F 2024-01-01 00:00:00
FX 506 KMIA MD11F 2023-12-31 00:00:00
FX 1111 KAFW B752 2023-12-31 00:00:00
FX 507 LFPG B77F 2023-12-30 00:00:00
FX 506 KMIA B77F 2023-12-23 00:00:00
FX 506 KMIA B77F 2023-12-23 00:00:00
FX 503 KORD B77F 2023-12-24 00:00:00
FX515 KCLE B77F 2023-12-20 00:00:00
FX 525 KORF B77F 2023-12-19 00:00:00
FX 511 KATL B77F 2023-12-16 00:00:00
FX 501 KMEM B77F 2023-12-05 00:00:00
FX1111 KAFW B752 2023-12-02 00:00:00
FX 506 KMIA B77F 2023-11-29 00:00:00
FX CTR KSFO B77F 2023-11-28 00:00:00
FXTHANKSG KPYM C208 2023-11-26 00:00:00
FX THANKSGIVING 4 KPYM C208 2023-11-26 00:00:00
FX THANKSGIVING 4 KPYM C208 2023-11-26 00:00:00
FX THANKSGIVING 4 KPYM C208 2023-11-25 00:00:00
FX THANKSGIVING 4 KPYM C208 2023-11-25 00:00:00
FX 506 KMIA B77F 2023-11-25 00:00:00
FXTHANKSG KPYM C208 2023-11-25 00:00:00
FX THANKSGIVING 4 KPYM C208 2023-11-23 00:00:00
FX THANKSGIVING 4 KPYM C208 2023-11-22 00:00:00
FX THANKSGIVING 4 KPYM C208 2023-11-22 00:00:00
FX THANKSGIVING 4 KPYM C208 2023-11-22 00:00:00
FX THANKSGIVING 4 KPYM C208 2023-11-20 00:00:00
FX THANKSGIVING 4 KPYM C208 2023-11-20 00:00:00
FX THANKSGIVING 4 KPYM C208 2023-11-20 00:00:00
FX508 PANC B77F 2023-11-17 00:00:00
FX 523 KBNA B77F 2023-11-16 00:00:00
FX 502 KIND B77F 2023-11-15 00:00:00
FX 1236 KDEN B752 2023-11-12 00:00:00
FX 515 KCLE B77F 2023-11-09 00:00:00
FX 515 KCLE B77F 2023-11-09 00:00:00
FX 515 KCLE B77F 2023-11-05 00:00:00
MTN8418 KBOS C208 2023-11-05 00:00:00
FX517 KDTW B77F 2023-10-28 00:00:00
FX 831 KOAK MD11F 2023-10-26 00:00:00
FX508 PANC B77F 2023-10-24 00:00:00
FX 517 KDTW B77F 2023-10-21 00:00:00
FX 503 KORD B77F 2023-10-16 00:00:00
FX507 LFPG B77F 2023-10-14 00:00:00
FX 501 KMEM B77F 2023-10-13 00:00:00
FX 533 KONT B77F 2023-10-12 00:00:00
MTN 8418 KBOS C208 2023-10-05 00:00:00
FX508 PANC B77F 2023-10-05 00:00:00
FX CTR EGLL MD11F 2023-09-30 00:00:00
FX 501 KMEM B752 2023-09-30 00:00:00
FX 529 KIAD B77F 2023-09-23 00:00:00
FX 521 KLAX B77F 2023-09-22 00:00:00
FX 529 KIAD B752 2023-09-20 00:00:00
FX 501 KMEM MD11F 2023-09-14 00:00:00
FX 507 LFPG MD11F 2023-09-13 00:00:00
FX CTR LIRF B77F 2023-09-01 00:00:00
FX CTR WSSS B77F 2023-08-29 00:00:00
FX 517 KDTW B77F 2023-08-28 00:00:00
FX521 KLAX B77F 2023-08-27 00:00:00
FX CTR MPTO B77F 2023-08-26 00:00:00
FX 533 KONT B77F 2023-08-26 00:00:00
FX CTR CYYZ B77F 2023-08-23 00:00:00
FX 506 KMIA B77F 2023-08-19 00:00:00
FX 508 PANC B77F 2023-08-18 00:00:00
FXCTR HAAB B77F 2023-08-12 00:00:00
FX WORLD 5 KBOS B752 2023-08-10 00:00:00
FX 501 KMEM B77F 2023-08-06 00:00:00
FX 502 KIND B77F 2023-08-02 00:00:00
MTN 8423 KMDT C208 2023-07-31 00:00:00
FX 501 KMEM MD11F 2023-07-30 00:00:00
FX WORLD 5 KBOS B752 2023-07-28 00:00:00
FX 529 KIAD B77F 2023-07-23 00:00:00
FX 502 KIND MD11F 2023-07-23 00:00:00
MTN 8418 KBOS C208 2023-07-22 00:00:00
FX 525 KORF B752 2023-07-22 00:00:00
FX 506 KMIA B77F 2023-07-22 00:00:00
FX 511 KATL B77F 2023-07-19 00:00:00
FX 511 KATL B77F 2023-07-19 00:00:00

Arrivals History (last 12 months)

Flight No. Origin Aircraft Date
FX 563 PANC FEDEX-MD11... 2024-07-09 00:00:00
MTN8430 KIAD FEDEX-C208 2024-06-26 00:00:00
FX 276 LFPG FEDEX-B77F 2024-06-24 00:00:00
FX242 EGSS FEDEX-B77F 2024-06-21 00:00:00
FX509 KATL FEDEX-B77F 2024-06-17 00:00:00
FX 216 KOAK FEDEX-MD11... 2024-06-17 00:00:00
FX501 KORD FEDEX-MD11... 2024-06-12 00:00:00
CONNECT107 EGSS FEDEX-B77F 2024-06-12 00:00:00
CONNECT107 EGSS FEDEX-B77F 2024-06-12 00:00:00
FX058 KMEM FEDEX-B77F 2024-06-11 00:00:00
CONNECT107 EGSS FEDEX-B77F 2024-06-12 00:00:00
CONNECT107 EGSS FEDEX-B77F 2024-06-10 00:00:00
FX 1067 KDFW IF-LIVERY-... 2024-06-06 00:00:00
FX519 KLAX FEDEX-DC10... 2024-05-23 00:00:00
FX 276 LFPG FEDEX-B77F 2024-05-20 00:00:00
FX 261 KMIA FEDEX-MD11... 2024-05-20 00:00:00
FX509 KATL FEDEX-B77F 2024-05-20 00:00:00
FX 509 KATL FEDEX-B77F 2024-05-19 00:00:00
FX519 KLAX FEDEX-MD11... 2024-05-18 00:00:00
FX 513 KCLE FEDEX-B77F 2024-05-15 00:00:00
FX 521 KBNA FEDEX-MD11... 2024-05-12 00:00:00
FX058 KMEM FEDEX-MD11... 2024-05-10 00:00:00
FX ATC KEWR IFATC 2024-05-11 00:00:00
FX 517 KFLL FEDEX-B77F 2024-05-07 00:00:00
FX515 KDTW FEDEX-B77F 2024-05-04 00:00:00
FX 509 KATL FEDEX-B77F 2024-04-22 00:00:00
FX 421 LIMC FEDEX-B77F 2024-04-15 00:00:00
FX 261 KMIA FEDEX-MD11... 2024-04-11 00:00:00
FX276 LFPG FEDEX-MD11... 2024-04-09 00:00:00
FX 509 KATL FEDEX-B77F 2024-04-08 00:00:00
FFFX 01 KGSO FEDEX-MD11... 2024-04-06 00:00:00
FFFX 01 KGSO FEDEX-B77F 2024-04-06 00:00:00
FFFX 01 KGSO FEDEX-B77F 2024-04-06 00:00:00
FX 509 KATL FEDEX-B77F 2024-04-05 00:00:00
FFFX 01 KGSO FEDEX-MD11... 2024-04-06 00:00:00
FFFX 01 KGSO FEDEX-MD11... 2024-04-06 00:00:00
FFFX 01 KGSO FEDEX-B77F 2024-04-06 00:00:00
FFFX 01 KGSO FEDEX-MD11... 2024-04-06 00:00:00
FFFX 01 KGSO FEDEX-B77F 2024-04-06 00:00:00
FFFX 01 KGSO FEDEX-MD11... 2024-04-06 00:00:00
FFFX 01 KGSO FEDEX-B77F 2024-04-06 00:00:00
FX 515 KDTW FEDEX-MD11... 2024-03-31 00:00:00
FX 515 KDTW IF-LIVERY-... 2024-03-24 00:00:00
FX 276 LFPG FEDEX-B77F 2024-03-19 00:00:00
FX 216 KOAK FEDEX-B77F 2024-03-12 00:00:00
FX 261 KMIA FEDEX-B77F 2024-03-11 00:00:00
FX 261 KMIA FEDEX-B77F 2024-02-25 00:00:00
FX058 KMEM FEDEX-B77F 2024-02-20 00:00:00
FX CTR LIMC FEDEX-B77F 2024-02-19 00:00:00
FX 566 PANC FEDEX-DC10... 2024-02-18 00:00:00
FX 566 PANC FEDEX-B77F 2024-02-18 00:00:00
FX 262 KMIA FEDEX-MD11... 2024-02-12 00:00:00
FX ATC KEWR IFATC 2024-02-11 00:00:00
FX 058 KMEM FEDEX-B77F 2024-02-10 00:00:00
FX 277 LFPG FEDEX-B77F 2024-02-09 00:00:00
FX512 KATL FEDEX-B77F 2024-02-09 00:00:00
FX 522 KLAX IF-LIVERY-... 2024-02-08 00:00:00
FX 566 PANC FEDEX-MD11... 2024-02-07 00:00:00
FX 522 KLAX FEDEX-B77F 2024-02-01 00:00:00
FX518 KDTW FEDEX-B77F 2024-01-31 00:00:00
FX277 LFPG FEDEX-B77F 2024-01-29 00:00:00
FX522 KLAX FEDEX-B77F 2024-01-27 00:00:00
FX 522 KLAX FEDEX-B77F 2024-01-26 00:00:00
FX504 KORD FEDEX-B77F 2024-01-26 00:00:00
FX 522 KLAX FEDEX-B77F 2024-01-25 00:00:00
FX058 KMEM FEDEX-B77F 2024-01-21 00:00:00
FX 277 LFPG MD11F 2024-01-10 00:00:00
FX987 KBOS B763 2024-01-10 00:00:00
FX058 KMEM MD11F 2024-01-07 00:00:00
FX 526 KORF B77F 2024-01-07 00:00:00
FX 512 KATL B77F 2024-01-06 00:00:00
FX 1106 KDFW B752 2024-01-06 00:00:00
FX 262 KMIA B77F 2024-01-05 00:00:00
FC CTR OMDB B77F 2024-01-05 00:00:00
FX1106 KDFW B752 2024-01-05 00:00:00
FX504 KORD B77F 2024-01-03 00:00:00
FX 987 KBOS B77F 2024-01-02 00:00:00
FX 524 KBNA B77F 2024-01-02 00:00:00
FX 522 KLAX B77F 2024-01-02 00:00:00
FX 516 KCLE B77F 2024-01-02 00:00:00
FX 504 KORD B77F 2024-01-03 00:00:00
FX 277 LFPG B77F 2024-01-02 00:00:00
FX CTR KOAK B77F 2023-12-31 00:00:00
FX 262 KMIA B77F 2023-12-28 00:00:00
FX 217 KOAK B77F 2023-12-29 00:00:00
FX 217 KOAK B77F 2023-12-29 00:00:00
FX 370 KIND B77F 2023-12-25 00:00:00
FX 520 KFLL MD11F 2023-12-22 00:00:00
FX 518 KDTW DC10F 2023-12-23 00:00:00
FX 518 KDTW B77F 2023-12-23 00:00:00
FX 520 KFLL B77F 2023-12-22 00:00:00
FX524 KBNA B77F 2023-12-20 00:00:00
FX 526 KORF B77F 2023-12-19 00:00:00
FX 522 KLAX B77F 2023-12-17 00:00:00
FX 987 KBOS B763 2023-11-30 00:00:00
FX 566 PANC B77F 2023-11-30 00:00:00
FX 566 PANC B77F 2023-11-30 00:00:00
FX ROTW KPDX B77F 2023-11-29 00:00:00
FX THANKSGIVING 3 KBOS B752 2023-11-26 00:00:00
FX THANKSGIVING 3 KBOS B752 2023-11-26 00:00:00
FX 058 KMEM B77F 2023-11-27 00:00:00
FX THANKSGIVING 3 KBOS B752 2023-11-25 00:00:00
FX CTR KPHX MD11F 2023-11-26 00:00:00
FX THANKSGIVING 3 KBOS B752 2023-11-24 00:00:00
FXTHANKSG KBOS B752 2023-11-23 00:00:00
FX THANKSGIVING 3 KBOS B752 2023-11-23 00:00:00
FX THANKSGIVING 3 KBOS B752 2023-11-22 00:00:00
FX THANKSGIVING 3 KBOS B752 2023-11-22 00:00:00
FX THANKSGIVING 3 KBOS B752 2023-11-22 00:00:00
FX THANKSGIVING 3 KBOS B752 2023-11-21 00:00:00
FX THANKSGIVING 3 KBOS B752 2023-11-20 00:00:00
FX THANKSGIVING 3 KBOS B752 2023-11-20 00:00:00
FX THANKSGIVING 3 KBOS B752 2023-11-20 00:00:00
FX277 LFPG B77F 2023-11-19 00:00:00
FX 524 KBNA B77F 2023-11-16 00:00:00
FX 522 KLAX B77F 2023-11-14 00:00:00
FX ROTW KPIT B752 2023-11-12 00:00:00
FX 522 KLAX B77F 2023-11-11 00:00:00
FX 522 KLAX MD11F 2023-11-10 00:00:00
FX 243 EGSS B77F 2023-11-09 00:00:00
FX 518 KDTW B752 2023-11-08 00:00:00
FX 512 KATL MD11F 2023-11-09 00:00:00
FX1106 KDFW B752 2023-11-04 00:00:00
KE 00 4 LFPG KOREAN B77... 2023-11-02 00:00:00
FX 424 LIMC B77F 2023-10-23 00:00:00
FX 504 KORD B77F 2023-10-21 00:00:00
FX 522 KLAX MD11F 2023-10-18 00:00:00
FX277 LFPG MD11F 2023-10-15 00:00:00
FX 262 KMIA MD11F 2023-10-16 00:00:00
FX058 KMEM B77F 2023-10-14 00:00:00
FX 534 KONT B77F 2023-10-14 00:00:00
FX518 KDTW B77F 2023-10-11 00:00:00
FX522 KLAX DC10F 2023-10-07 00:00:00
FX 1106 KDFW B752 2023-10-04 00:00:00
FX566 PANC MD11F 2023-10-01 00:00:00
FX524 KBNA B77F 2023-10-02 00:00:00
FX512 KATL B77F 2023-10-01 00:00:00
FX CTR VHHH B77F 2023-09-29 00:00:00
FX 522 KLAX B752 2023-09-29 00:00:00
FX 058 KMEM B77F 2023-09-29 00:00:00
FX542 KGSO B77F 2023-09-28 00:00:00
FX058 KMEM B77F 2023-09-25 00:00:00
FX 522 KLAX MD11F 2023-09-22 00:00:00
FX 514 KCLT B77F 2023-09-18 00:00:00
FX 277 LFPG MD11F 2023-09-14 00:00:00
FX 058 KMEM MD11F 2023-09-11 00:00:00
FX 542 KGSO B77F 2023-09-09 00:00:00
FX 243 EGSS B77F 2023-09-09 00:00:00
FX 262 KMIA B77F 2023-09-08 00:00:00
MTN 8419 KBOS C208 2023-09-05 00:00:00
FX 522 KLAX B77F 2023-08-28 00:00:00
FX 526 KORF B77F 2023-08-26 00:00:00
FX 370 KIND B77F 2023-08-13 00:00:00
FXWORLD4 KMIA B77F 2023-08-12 00:00:00
FX 522 KLAX B77F 2023-08-13 00:00:00
FX WORLD 4 KMIA B77F 2023-08-10 00:00:00
FX 262 KMIA B77F 2023-08-08 00:00:00
FX 058 KMEM B77F 2023-08-05 00:00:00
FX 262 KMIA B77F 2023-08-02 00:00:00
FX CTR VABB B77F 2023-07-30 00:00:00
FX 991 KRDU B763 2023-07-30 00:00:00
FX WORLD 4 KMIA B77F 2023-07-28 00:00:00
MTN 8419 KBOS C208 2023-07-23 00:00:00
MTN 8419 KBOS C208 2023-07-22 00:00:00
FX 277 LFPG B77F 2023-07-22 00:00:00
FX 277 LFPG B77F 2023-07-22 00:00:00
FX CTR PHNL B77F 2023-07-20 00:00:00
FX 504 KORD MD11F 2023-07-20 00:00:00

Runway Information (Airport elevation: 11ft)

Runway 04L Length 11,002ft Width 150ft Elevation 11ft Surface Asphalt Heading 26
Runway 04R Length 10,005ft Width 150ft Elevation 11ft Surface Asphalt Heading 26
Runway 11 Length 6,728ft Width 150ft Elevation 11ft Surface Asphalt Heading 95
Runway 22L Length 10,005ft Width 150ft Elevation 11ft Surface Asphalt Heading 206
Runway 22R Length 11,002ft Width 150ft Elevation 11ft Surface Asphalt Heading 206
Runway 29 Length 6,728ft Width 150ft Elevation 11ft Surface Asphalt Heading 275

Airport Frequencies

Type APP/DEP Frequency 127.600 Mhz
Type APP/DEP Frequency 128.550 Mhz
Type APP/DEP Frequency 132.700 Mhz
Type APP/DEP Frequency 132.800 Mhz
Type ATIS Frequency 134.825 Mhz
Type CPT Frequency 118.850 Mhz
Type D Frequency 119.200 Mhz
Type Ground Frequency 121.800 Mhz
Type Ground Frequency 126.150 Mhz
Type Ground Frequency 132.450 Mhz
Type Tower Frequency 118.300 Mhz
Type Tower Frequency 134.050 Mhz
Type UC Frequency 122.950 Mhz
Type APP/DEP Frequency 125.850 Mhz
Type Clearance Frequency 118.850 Mhz
Type D Frequency 127.850 Mhz
Type Ground Frequency 122.850 Mhz
Type Ground Frequency 123.850 Mhz
Type Ground Frequency 129.325 Mhz
Type Ground Frequency 129.575 Mhz
Type Ground Frequency 130.375 Mhz
Type Ground Frequency 131.075 Mhz
Type Ground Frequency 131.450 Mhz
Type UC Frequency 122.950 Mhz

Airport Navaids

Type NDB Ident EW Frequency 241 Khz
Type NDB Ident EZ Frequency 373 Khz